createdAt,value
2023-05-10T00:01:34.345Z,100528.69
2023-05-10T00:04:01.192Z,100517.53
2023-05-10T00:06:29.030Z,100513.22
2023-05-10T00:08:55.880Z,100523.66
2023-05-10T00:11:23.251Z,100518.59
2023-05-10T00:13:50.207Z,100519.88
2023-05-10T00:16:17.034Z,100527.78
2023-05-10T00:18:43.940Z,100518.25
2023-05-10T00:21:10.732Z,100523.63
2023-05-10T00:23:37.627Z,100530.19
2023-05-10T00:26:04.425Z,100510.28
2023-05-10T00:28:31.363Z,100524.53
2023-05-10T00:30:58.214Z,100515.28
2023-05-10T00:33:25.069Z,100517.69
2023-05-10T00:35:51.923Z,100511.41
2023-05-10T00:38:18.651Z,100490.84
2023-05-10T00:40:45.470Z,100508.06
2023-05-10T00:43:20.169Z,100498.38
2023-05-10T00:45:48.314Z,100498.94
2023-05-10T00:48:15.395Z,100498.00
2023-05-10T00:50:42.352Z,100492.75
2023-05-10T00:53:09.950Z,100495.09
2023-05-10T00:55:37.320Z,100491.63
2023-05-10T00:58:04.518Z,100489.19
2023-05-10T01:00:31.485Z,100481.75
2023-05-10T01:02:59.171Z,100483.59
2023-05-10T01:05:26.132Z,100479.00
2023-05-10T01:07:52.892Z,100473.19
2023-05-10T01:10:19.770Z,100471.75
2023-05-10T01:12:48.225Z,100455.13
2023-05-10T01:15:17.330Z,100467.44
2023-05-10T01:17:47.085Z,100461.81
2023-05-10T01:20:15.403Z,100460.16
2023-05-10T01:22:57.674Z,100455.66
2023-05-10T01:26:01.490Z,100453.50
2023-05-10T01:29:05.220Z,100458.66
2023-05-10T01:31:58.248Z,100459.81
2023-05-10T01:34:28.502Z,100455.47
2023-05-10T01:37:05.313Z,100453.66
2023-05-10T01:39:45.598Z,100460.78
2023-05-10T01:42:18.693Z,100449.66
2023-05-10T01:45:04.143Z,100458.59
2023-05-10T01:47:42.943Z,100449.28
2023-05-10T01:50:23.532Z,100446.94
2023-05-10T01:52:56.134Z,100445.25
2023-05-10T01:55:27.162Z,100436.44
2023-05-10T01:58:01.348Z,100442.78
2023-05-10T02:00:29.903Z,100440.28
2023-05-10T02:02:57.408Z,100436.09
2023-05-10T02:05:25.415Z,100440.59
2023-05-10T02:07:54.134Z,100432.94
2023-05-10T02:10:21.747Z,100435.78
2023-05-10T02:12:51.104Z,100432.47
2023-05-10T02:15:25.748Z,100437.47
2023-05-10T02:17:55.535Z,100434.81
2023-05-10T02:20:24.405Z,100432.31
2023-05-10T02:22:53.642Z,100430.16
2023-05-10T02:25:22.523Z,100423.19
2023-05-10T02:27:50.093Z,100438.47
2023-05-10T02:30:19.085Z,100436.22
2023-05-10T02:32:46.741Z,100435.81
2023-05-10T02:35:14.270Z,100436.50
2023-05-10T02:37:42.963Z,100427.81
2023-05-10T02:40:11.116Z,100434.16
2023-05-10T02:42:39.927Z,100431.97
2023-05-10T02:45:12.701Z,100428.34
2023-05-10T02:47:40.060Z,100416.19
2023-05-10T02:50:08.245Z,100424.00
2023-05-10T02:52:50.820Z,100417.84
2023-05-10T02:55:22.561Z,100416.53
2023-05-10T02:57:55.002Z,100423.16
2023-05-10T03:00:21.901Z,100421.13
2023-05-10T03:02:48.769Z,100424.78
2023-05-10T03:05:15.620Z,100417.97
2023-05-10T03:07:42.591Z,100413.94
2023-05-10T03:10:10.567Z,100421.59
2023-05-10T03:12:52.487Z,100429.88
2023-05-10T03:15:30.154Z,100428.38
2023-05-10T03:18:05.784Z,100421.56
2023-05-10T03:20:38.389Z,100431.69
2023-05-10T03:23:27.300Z,100430.31
2023-05-10T03:25:54.501Z,100421.16
2023-05-10T03:28:22.729Z,100407.84
2023-05-10T03:30:50.977Z,100411.00
2023-05-10T03:33:17.871Z,100416.47
2023-05-10T03:35:46.983Z,100402.81
2023-05-10T03:38:14.770Z,100424.28
2023-05-10T03:40:41.720Z,100420.25
2023-05-10T03:43:09.106Z,100422.16
2023-05-10T03:45:36.666Z,100429.09
2023-05-10T03:48:03.828Z,100422.00
2023-05-10T03:50:30.727Z,100420.31
2023-05-10T03:52:58.325Z,100424.38
2023-05-10T03:55:25.362Z,100421.72
2023-05-10T03:57:52.270Z,100421.97
2023-05-10T04:00:19.286Z,100431.78
2023-05-10T04:02:49.994Z,100422.81
2023-05-10T04:05:19.462Z,100434.28
2023-05-10T04:07:46.224Z,100444.78
2023-05-10T04:10:13.070Z,100433.00
2023-05-10T04:12:39.710Z,100437.56
2023-05-10T04:15:07.813Z,100449.00
2023-05-10T04:17:34.773Z,100446.88
2023-05-10T04:20:01.545Z,100446.38
2023-05-10T04:22:30.056Z,100443.75
2023-05-10T04:24:56.762Z,100444.78
2023-05-10T04:27:23.513Z,100445.94
2023-05-10T04:29:50.213Z,100449.94
2023-05-10T04:32:18.224Z,100460.94
2023-05-10T04:34:45.021Z,100449.63
2023-05-10T04:37:11.770Z,100455.84
2023-05-10T04:39:40.242Z,100452.81
2023-05-10T04:42:08.352Z,100447.50
2023-05-10T04:44:35.353Z,100451.34
2023-05-10T04:47:03.291Z,100456.16
2023-05-10T04:49:30.741Z,100458.66
2023-05-10T04:51:57.434Z,100448.34
2023-05-10T04:54:24.299Z,100464.81
2023-05-10T04:56:51.087Z,100464.81
2023-05-10T04:59:18.248Z,100456.84
2023-05-10T05:01:45.080Z,100467.19
2023-05-10T05:04:12.087Z,100472.16
2023-05-10T05:06:38.923Z,100473.84
2023-05-10T05:09:05.619Z,100479.63
2023-05-10T05:11:32.368Z,100475.31
2023-05-10T05:14:00.327Z,100465.69
2023-05-10T05:16:27.506Z,100477.97
2023-05-10T05:18:54.468Z,100479.81
2023-05-10T05:21:21.475Z,100479.47
2023-05-10T05:23:48.187Z,100480.47
2023-05-10T05:26:16.117Z,100464.81
2023-05-10T05:28:43.222Z,100481.97
2023-05-10T05:31:10.329Z,100472.63
2023-05-10T05:33:37.793Z,100458.50
2023-05-10T05:36:06.412Z,100475.47
2023-05-10T05:38:33.246Z,100473.44
2023-05-10T05:41:00.037Z,100478.28
2023-05-10T05:43:26.862Z,100472.63
2023-05-10T05:45:54.990Z,100474.94
2023-05-10T05:48:22.123Z,100471.28
2023-05-10T05:50:48.906Z,100489.06
2023-05-10T05:53:15.805Z,100487.91
2023-05-10T05:55:55.797Z,100495.34
2023-05-10T05:58:23.512Z,100497.66
2023-05-10T06:00:50.609Z,100497.78
2023-05-10T06:03:17.527Z,100486.16
2023-05-10T06:05:44.523Z,100486.16
2023-05-10T06:08:11.580Z,100497.78
2023-05-10T06:10:38.725Z,100493.09
2023-05-10T06:13:05.756Z,100494.09
2023-05-10T06:15:33.630Z,100506.38
2023-05-10T06:18:00.584Z,100505.88
2023-05-10T06:20:27.561Z,100507.88
2023-05-10T06:22:54.438Z,100506.97
2023-05-10T06:25:21.267Z,100502.09
2023-05-10T06:27:51.724Z,100489.91
2023-05-10T06:30:20.430Z,100491.53
2023-05-10T06:32:47.252Z,100494.31
2023-05-10T06:35:14.244Z,100489.97
2023-05-10T06:37:40.994Z,100487.75
2023-05-10T06:40:08.673Z,100495.78
2023-05-10T06:42:35.375Z,100484.47
2023-05-10T06:45:03.949Z,100494.66
2023-05-10T06:47:30.775Z,100483.53
2023-05-10T06:49:57.869Z,100485.97
2023-05-10T06:52:24.731Z,100475.28
2023-05-10T06:54:51.487Z,100479.00
2023-05-10T06:57:30.561Z,100475.69
2023-05-10T07:00:01.792Z,100473.50
2023-05-10T07:02:29.075Z,100478.94
2023-05-10T07:04:55.935Z,100481.06
2023-05-10T07:07:22.814Z,100477.66
2023-05-10T07:09:50.919Z,100466.22
2023-05-10T07:12:17.791Z,100469.38
2023-05-10T07:14:44.639Z,100471.78
2023-05-10T07:17:11.699Z,100468.91
2023-05-10T07:19:46.170Z,100465.66
2023-05-10T07:22:14.028Z,100462.31
2023-05-10T07:24:41.517Z,100455.41
2023-05-10T07:27:08.308Z,100462.31
2023-05-10T07:29:35.127Z,100457.69
2023-05-10T07:32:02.298Z,100453.09
2023-05-10T07:34:31.204Z,100457.16
2023-05-10T07:36:59.848Z,100452.25
2023-05-10T07:39:28.370Z,100450.03
2023-05-10T07:41:56.183Z,100443.41
2023-05-10T07:44:23.334Z,100462.13
2023-05-10T07:46:50.395Z,100455.19
2023-05-10T07:49:17.263Z,100450.63
2023-05-10T07:51:44.410Z,100451.06
2023-05-10T07:54:11.392Z,100449.34
2023-05-10T07:56:38.265Z,100450.31
2023-05-10T07:59:07.377Z,100446.84
2023-05-10T08:01:35.661Z,100433.84
2023-05-10T08:04:03.319Z,100451.44
2023-05-10T08:06:31.349Z,100446.34
2023-05-10T08:08:58.281Z,100441.00
2023-05-10T08:11:25.305Z,100430.22
2023-05-10T08:13:52.768Z,100448.25
2023-05-10T08:16:20.415Z,100446.56
2023-05-10T08:18:48.409Z,100439.09
2023-05-10T08:21:16.021Z,100440.97
2023-05-10T08:23:44.717Z,100453.81
2023-05-10T08:26:11.909Z,100444.97
2023-05-10T08:28:39.005Z,100458.25
2023-05-10T08:31:06.606Z,100454.81
2023-05-10T08:33:33.895Z,100442.56
2023-05-10T08:36:00.683Z,100456.31
2023-05-10T08:38:27.578Z,100457.38
2023-05-10T08:40:59.744Z,100453.69
2023-05-10T08:43:30.875Z,100457.06
2023-05-10T08:46:02.169Z,100458.75
2023-05-10T08:48:31.136Z,100450.66
2023-05-10T08:51:00.951Z,100455.50
2023-05-10T08:53:28.330Z,100460.16
2023-05-10T08:55:56.738Z,100448.88
2023-05-10T08:58:23.790Z,100462.00
2023-05-10T09:00:53.912Z,100459.41
2023-05-10T09:03:21.077Z,100459.72
2023-05-10T09:05:48.702Z,100442.63
2023-05-10T09:08:17.326Z,100454.59
2023-05-10T09:10:45.439Z,100457.31
2023-05-10T09:13:15.069Z,100453.22
2023-05-10T09:15:42.209Z,100446.31
2023-05-10T09:18:08.937Z,100454.56
2023-05-10T09:20:35.844Z,100454.19
2023-05-10T09:23:02.553Z,100463.25
2023-05-10T09:25:29.449Z,100451.94
2023-05-10T09:27:56.502Z,100448.38
2023-05-10T09:30:31.638Z,100440.03
2023-05-10T09:33:00.131Z,100446.63
2023-05-10T09:35:31.579Z,100447.41
2023-05-10T09:38:02.222Z,100442.66
2023-05-10T09:40:31.131Z,100434.00
2023-05-10T09:42:59.723Z,100435.25
2023-05-10T09:45:31.665Z,100424.53
2023-05-10T09:48:00.137Z,100426.03
2023-05-10T09:50:27.851Z,100411.34
2023-05-10T09:53:00.227Z,100424.00
2023-05-10T09:55:45.921Z,100426.91
2023-05-10T09:58:14.643Z,100415.53
2023-05-10T10:00:45.780Z,100419.66
2023-05-10T10:03:15.706Z,100425.06
2023-05-10T10:05:43.782Z,100434.38
2023-05-10T10:08:11.230Z,100429.00
2023-05-10T10:10:38.081Z,100420.72
2023-05-10T10:13:05.880Z,100425.50
2023-05-10T10:15:34.326Z,100422.59
2023-05-10T10:18:01.598Z,100385.41
2023-05-10T10:20:30.117Z,100413.91
2023-05-10T10:22:56.893Z,100418.03
2023-05-10T10:25:24.186Z,100419.47
2023-05-10T10:27:53.887Z,100415.13
2023-05-10T10:30:39.028Z,100411.00
2023-05-10T10:33:30.733Z,100410.19
2023-05-10T10:36:01.065Z,100405.63
2023-05-10T10:38:48.844Z,100403.56
2023-05-10T10:41:33.830Z,100395.28
2023-05-10T10:44:34.668Z,100391.94
2023-05-10T10:47:10.315Z,100383.88
2023-05-10T10:49:49.421Z,100398.56
2023-05-10T10:52:22.825Z,100373.75
2023-05-10T10:55:10.121Z,100371.03
2023-05-10T10:58:05.493Z,100383.88
2023-05-10T11:00:34.228Z,100375.16
2023-05-10T11:03:17.954Z,100369.31
2023-05-10T11:05:49.065Z,100374.25
2023-05-10T11:08:30.713Z,100378.19
2023-05-10T11:11:00.640Z,100370.78
2023-05-10T11:13:42.587Z,100368.91
2023-05-10T11:16:13.955Z,100365.06
2023-05-10T11:18:41.699Z,100366.69
2023-05-10T11:21:11.707Z,100362.22
2023-05-10T11:23:44.568Z,100369.47
2023-05-10T11:26:12.576Z,100359.53
2023-05-10T11:28:46.432Z,100368.41
2023-05-10T11:31:20.911Z,100357.25
2023-05-10T11:33:54.033Z,100358.28
2023-05-10T11:36:28.461Z,100357.66
2023-05-10T11:38:57.476Z,100363.63
2023-05-10T11:41:25.720Z,100367.94
2023-05-10T11:43:54.973Z,100365.44
2023-05-10T11:46:24.531Z,100353.81
2023-05-10T11:48:53.269Z,100355.41
2023-05-10T11:51:25.408Z,100342.25
2023-05-10T11:53:55.802Z,100338.16
2023-05-10T11:56:23.072Z,100348.22
2023-05-10T11:58:58.149Z,100339.97
2023-05-10T12:01:28.863Z,100330.84
2023-05-10T12:04:00.018Z,100338.59
2023-05-10T12:06:33.553Z,100333.88
2023-05-10T12:09:00.674Z,100337.88
2023-05-10T12:11:29.560Z,100338.38
2023-05-10T12:13:57.551Z,100334.78
2023-05-10T12:16:30.565Z,100338.75
2023-05-10T12:18:59.620Z,100337.75
2023-05-10T12:21:27.211Z,100330.03
2023-05-10T12:23:56.596Z,100323.38
2023-05-10T12:26:24.285Z,100329.75
2023-05-10T12:28:51.083Z,100320.34
2023-05-10T12:31:17.869Z,100322.47
2023-05-10T12:33:46.314Z,100324.22
2023-05-10T12:36:14.887Z,100319.53
2023-05-10T12:38:44.358Z,100317.53
2023-05-10T12:41:13.067Z,100316.47
2023-05-10T12:43:40.556Z,100314.31
2023-05-10T12:46:12.253Z,100302.13
2023-05-10T12:48:40.385Z,100317.00
2023-05-10T12:51:10.340Z,100313.06
2023-05-10T12:53:37.781Z,100304.34
2023-05-10T12:56:04.754Z,100304.13
2023-05-10T12:58:36.035Z,100297.38
2023-05-10T13:01:03.674Z,100292.03
2023-05-10T13:03:30.675Z,100288.31
2023-05-10T13:05:57.635Z,100288.75
2023-05-10T13:08:24.532Z,100293.31
2023-05-10T13:10:51.298Z,100286.06
2023-05-10T13:13:19.288Z,100297.09
2023-05-10T13:15:46.051Z,100284.63
2023-05-10T13:18:12.954Z,100275.41
2023-05-10T13:20:39.664Z,100280.91
2023-05-10T13:23:06.503Z,100281.19
2023-05-10T13:25:33.386Z,100266.00
2023-05-10T13:28:00.210Z,100282.22
2023-05-10T13:30:27.086Z,100280.63
2023-05-10T13:32:53.880Z,100273.72
2023-05-10T13:35:20.744Z,100263.00
2023-05-10T13:37:47.692Z,100242.34
2023-05-10T13:40:16.531Z,100264.44
2023-05-10T13:42:43.588Z,100265.69
2023-05-10T13:45:13.245Z,100260.94
2023-05-10T13:47:40.352Z,100263.31
2023-05-10T13:50:07.877Z,100265.50
2023-05-10T13:52:34.725Z,100262.72
2023-05-10T13:55:01.724Z,100266.00
2023-05-10T13:57:29.847Z,100257.91
2023-05-10T13:59:58.328Z,100250.34
2023-05-10T14:02:25.784Z,100254.69
2023-05-10T14:04:52.728Z,100250.00
2023-05-10T14:07:19.484Z,100243.13
2023-05-10T14:09:46.545Z,100237.06
2023-05-10T14:12:13.306Z,100236.19
2023-05-10T14:14:40.291Z,100226.38
2023-05-10T14:17:07.026Z,100215.06
2023-05-10T14:19:35.064Z,100237.75
2023-05-10T14:22:01.780Z,100230.47
2023-05-10T14:24:28.594Z,100229.81
2023-05-10T14:26:55.370Z,100228.53
2023-05-10T14:29:23.087Z,100236.31
2023-05-10T14:31:49.880Z,100228.38
2023-05-10T14:34:16.661Z,100231.13
2023-05-10T14:36:43.353Z,100225.13
2023-05-10T14:39:11.288Z,100223.47
2023-05-10T14:41:38.731Z,100216.34
2023-05-10T14:44:05.939Z,100228.63
2023-05-10T14:46:32.719Z,100214.16
2023-05-10T14:48:59.566Z,100230.25
2023-05-10T14:51:26.341Z,100225.31
2023-05-10T14:53:53.007Z,100219.75
2023-05-10T14:56:19.746Z,100218.47
2023-05-10T14:58:46.516Z,100216.03
2023-05-10T15:01:13.441Z,100226.16
2023-05-10T15:03:40.846Z,100218.94
2023-05-10T15:06:09.518Z,100214.25
2023-05-10T15:08:36.275Z,100215.81
2023-05-10T15:11:03.704Z,100216.03
2023-05-10T15:13:30.680Z,100212.31
2023-05-10T15:15:57.580Z,100216.66
2023-05-10T15:18:27.040Z,100215.91
2023-05-10T15:20:53.787Z,100216.66
2023-05-10T15:23:20.481Z,100213.34
2023-05-10T15:25:47.250Z,100216.28
2023-05-10T15:28:14.369Z,100217.53
2023-05-10T15:30:41.469Z,100211.25
2023-05-10T15:33:09.708Z,100215.72
2023-05-10T15:35:39.198Z,100216.13
2023-05-10T15:38:06.831Z,100211.84
2023-05-10T15:40:34.002Z,100201.00
2023-05-10T15:43:00.741Z,100210.41
2023-05-10T15:45:27.602Z,100199.09
2023-05-10T15:47:54.339Z,100204.56
2023-05-10T15:50:21.270Z,100202.28
2023-05-10T15:52:48.030Z,100205.94
2023-05-10T15:55:15.462Z,100202.72
2023-05-10T15:57:43.748Z,100200.25
2023-05-10T16:00:12.720Z,100203.16
2023-05-10T16:02:40.831Z,100201.88
2023-05-10T16:05:08.538Z,100200.38
2023-05-10T16:07:35.777Z,100200.25
2023-05-10T16:10:09.169Z,100195.63
2023-05-10T16:12:36.260Z,100195.22
2023-05-10T16:15:03.051Z,100196.44
2023-05-10T16:17:29.983Z,100206.41
2023-05-10T16:19:56.717Z,100198.97
2023-05-10T16:22:27.213Z,100195.16
2023-05-10T16:24:54.023Z,100204.19
2023-05-10T16:27:20.811Z,100199.84
2023-05-10T16:29:48.071Z,100203.44
2023-05-10T16:32:14.852Z,100201.84
2023-05-10T16:34:41.734Z,100200.03
2023-05-10T16:37:08.578Z,100210.63
2023-05-10T16:39:35.340Z,100206.53
2023-05-10T16:42:02.152Z,100199.91
2023-05-10T16:44:28.997Z,100201.88
2023-05-10T16:46:56.102Z,100200.66
2023-05-10T16:49:24.437Z,100205.06
2023-05-10T16:51:52.717Z,100195.75
2023-05-10T16:54:20.372Z,100212.31
2023-05-10T16:56:47.092Z,100210.84
2023-05-10T16:59:13.881Z,100213.09
2023-05-10T17:01:41.791Z,100210.69
2023-05-10T17:04:08.701Z,100213.63
2023-05-10T17:06:36.809Z,100221.09
2023-05-10T17:09:04.090Z,100226.09
2023-05-10T17:11:31.234Z,100221.56
2023-05-10T17:13:59.586Z,100223.69
2023-05-10T17:16:27.019Z,100227.41
2023-05-10T17:18:53.847Z,100235.69
2023-05-10T17:21:21.205Z,100224.56
2023-05-10T17:23:47.920Z,100234.31
2023-05-10T17:26:14.697Z,100236.19
2023-05-10T17:28:41.502Z,100231.69
2023-05-10T17:31:08.731Z,100237.06
2023-05-10T17:33:35.482Z,100243.47
2023-05-10T17:36:02.437Z,100245.75
2023-05-10T17:38:29.125Z,100243.47
2023-05-10T17:40:55.848Z,100240.19
2023-05-10T17:43:23.463Z,100222.63
2023-05-10T17:45:50.308Z,100237.03
2023-05-10T17:48:17.368Z,100214.16
2023-05-10T17:50:44.410Z,100239.97
2023-05-10T17:53:11.182Z,100230.47
2023-05-10T17:55:42.316Z,100238.09
2023-05-10T17:58:11.328Z,100230.66
2023-05-10T18:00:38.797Z,100236.84
2023-05-10T18:03:06.144Z,100236.84
2023-05-10T18:05:37.232Z,100244.06
2023-05-10T18:08:05.316Z,100236.63
2023-05-10T18:10:32.444Z,100250.66
2023-05-10T18:12:59.297Z,100245.06
2023-05-10T18:15:26.935Z,100254.34
2023-05-10T18:17:53.839Z,100246.47
2023-05-10T18:20:20.675Z,100256.59
2023-05-10T18:22:47.536Z,100253.69
2023-05-10T18:25:14.373Z,100259.47
2023-05-10T18:27:41.332Z,100258.84
2023-05-10T18:30:10.146Z,100263.34
2023-05-10T18:32:38.458Z,100252.38
2023-05-10T18:35:06.912Z,100255.66
2023-05-10T18:37:34.280Z,100269.22
2023-05-10T18:40:01.025Z,100276.44
2023-05-10T18:42:28.117Z,100276.81
2023-05-10T18:44:55.819Z,100280.53
2023-05-10T18:47:22.751Z,100283.19
2023-05-10T18:49:49.564Z,100274.91
2023-05-10T18:52:16.355Z,100288.50
2023-05-10T18:54:43.057Z,100287.44
2023-05-10T18:57:10.127Z,100291.34
2023-05-10T18:59:37.030Z,100294.22
2023-05-10T19:02:04.803Z,100295.84
2023-05-10T19:04:31.661Z,100287.34
2023-05-10T19:06:58.374Z,100301.56
2023-05-10T19:09:26.652Z,100305.28
2023-05-10T19:11:53.556Z,100301.34
2023-05-10T19:14:20.740Z,100312.06
2023-05-10T19:16:53.219Z,100314.75
2023-05-10T19:19:20.633Z,100312.88
2023-05-10T19:21:48.211Z,100316.38
2023-05-10T19:24:15.006Z,100317.00
2023-05-10T19:26:41.810Z,100305.44
2023-05-10T19:29:09.549Z,100315.75
2023-05-10T19:31:36.343Z,100312.19
2023-05-10T19:34:04.135Z,100321.09
2023-05-10T19:36:31.526Z,100323.59
2023-05-10T19:38:58.292Z,100322.13
2023-05-10T19:41:25.078Z,100323.19
2023-05-10T19:43:53.039Z,100323.38
2023-05-10T19:46:20.460Z,100323.97
2023-05-10T19:48:47.379Z,100328.13
2023-05-10T19:51:14.088Z,100332.84
2023-05-10T19:53:44.893Z,100326.47
2023-05-10T19:56:12.896Z,100331.19
2023-05-10T19:58:40.206Z,100330.41
2023-05-10T20:01:07.975Z,100331.81
2023-05-10T20:03:35.702Z,100335.09
2023-05-10T20:06:04.043Z,100331.75
2023-05-10T20:08:31.074Z,100327.00
2023-05-10T20:10:59.207Z,100325.75
2023-05-10T20:13:26.239Z,100338.47
2023-05-10T20:15:59.881Z,100320.06
2023-05-10T20:18:27.184Z,100317.91
2023-05-10T20:20:55.108Z,100329.50
2023-05-10T20:23:22.513Z,100331.94
2023-05-10T20:25:49.913Z,100325.53
2023-05-10T20:28:25.222Z,100336.78
2023-05-10T20:30:54.288Z,100344.00
2023-05-10T20:33:25.480Z,100334.69
2023-05-10T20:35:52.519Z,100339.41
2023-05-10T20:38:19.311Z,100337.94
2023-05-10T20:40:47.374Z,100338.34
2023-05-10T20:43:14.116Z,100344.31
2023-05-10T20:45:40.972Z,100348.00
2023-05-10T20:48:08.017Z,100341.38
2023-05-10T20:50:34.801Z,100335.41
2023-05-10T20:53:01.532Z,100329.19
2023-05-10T20:55:28.690Z,100326.06
2023-05-10T20:57:55.670Z,100323.78
2023-05-10T21:00:22.395Z,100328.53
2023-05-10T21:02:49.579Z,100331.22
2023-05-10T21:05:18.367Z,100319.63
2023-05-10T21:07:45.065Z,100323.13
2023-05-10T21:10:12.363Z,100333.63
2023-05-10T21:12:39.259Z,100326.25
2023-05-10T21:15:06.576Z,100332.00
2023-05-10T21:17:33.852Z,100323.97
2023-05-10T21:20:00.862Z,100323.97
2023-05-10T21:22:27.689Z,100321.47
2023-05-10T21:24:54.415Z,100322.94
2023-05-10T21:27:21.505Z,100327.47
2023-05-10T21:29:48.347Z,100325.19
2023-05-10T21:32:15.121Z,100320.94
2023-05-10T21:34:42.083Z,100327.59
2023-05-10T21:37:09.023Z,100321.63
2023-05-10T21:39:36.050Z,100322.34
2023-05-10T21:42:03.759Z,100316.56
2023-05-10T21:44:31.797Z,100325.78
2023-05-10T21:46:58.617Z,100315.28
2023-05-10T21:49:25.320Z,100318.50
2023-05-10T21:51:52.131Z,100324.06
2023-05-10T21:54:18.896Z,100323.66
2023-05-10T21:56:45.684Z,100324.72
2023-05-10T21:59:12.456Z,100328.66
2023-05-10T22:01:39.336Z,100331.97
2023-05-10T22:04:06.101Z,100332.53
2023-05-10T22:06:32.845Z,100331.63
2023-05-10T22:08:59.655Z,100333.84
2023-05-10T22:11:26.844Z,100323.53
2023-05-10T22:13:53.606Z,100326.53
2023-05-10T22:16:20.620Z,100327.94
2023-05-10T22:18:47.515Z,100326.66
2023-05-10T22:21:14.287Z,100330.53
2023-05-10T22:23:41.153Z,100324.84
2023-05-10T22:26:07.945Z,100329.88
2023-05-10T22:28:34.703Z,100325.13
2023-05-10T22:31:01.556Z,100327.97
2023-05-10T22:33:28.246Z,100328.31
2023-05-10T22:35:55.167Z,100317.59
2023-05-10T22:38:22.423Z,100322.47
2023-05-10T22:40:49.245Z,100321.06
2023-05-10T22:43:16.978Z,100322.75
2023-05-10T22:45:44.033Z,100324.66
2023-05-10T22:48:10.811Z,100313.72
2023-05-10T22:50:37.639Z,100331.38
2023-05-10T22:53:04.373Z,100332.44
2023-05-10T22:55:31.237Z,100326.25
2023-05-10T22:57:58.201Z,100329.00
2023-05-10T23:00:25.002Z,100331.13
2023-05-10T23:02:51.967Z,100330.03
2023-05-10T23:05:19.173Z,100329.38
2023-05-10T23:07:48.448Z,100336.75
2023-05-10T23:10:15.381Z,100334.28
2023-05-10T23:12:42.291Z,100331.50
2023-05-10T23:15:09.693Z,100330.84
2023-05-10T23:17:36.550Z,100333.53
2023-05-10T23:20:03.679Z,100330.84
2023-05-10T23:22:30.434Z,100330.84
2023-05-10T23:24:57.422Z,100327.56
2023-05-10T23:27:24.200Z,100327.94
2023-05-10T23:29:55.500Z,100331.31
2023-05-10T23:32:22.965Z,100335.16
2023-05-10T23:34:49.804Z,100327.00
2023-05-10T23:37:17.024Z,100323.66
2023-05-10T23:39:43.704Z,100324.69
2023-05-10T23:42:10.499Z,100324.97
2023-05-10T23:44:37.149Z,100315.28
2023-05-10T23:47:03.946Z,100317.50
2023-05-10T23:49:30.915Z,100315.47
2023-05-10T23:51:57.694Z,100328.00
2023-05-10T23:54:24.353Z,100317.78
2023-05-10T23:56:51.720Z,100320.91
2023-05-10T23:59:18.458Z,100316.94
